createdAt,value
2024-02-19T00:02:43.546Z,96.65
2024-02-19T00:05:49.682Z,97.39
2024-02-19T00:09:00.048Z,97.15
2024-02-19T00:12:13.769Z,97.13
2024-02-19T00:15:24.747Z,96.79
2024-02-19T00:18:34.149Z,95.98
2024-02-19T00:21:40.139Z,96.25
2024-02-19T00:24:45.858Z,95.45
2024-02-19T00:27:51.386Z,95.72
2024-02-19T00:30:58.971Z,95.56
2024-02-19T00:34:11.268Z,94.92
2024-02-19T00:37:38.829Z,95.34
2024-02-19T00:40:49.434Z,95.79
2024-02-19T00:44:02.252Z,94.52
2024-02-19T00:50:57.616Z,94.12
2024-02-19T00:54:11.518Z,93.50
2024-02-19T00:57:29.683Z,93.77
2024-02-19T01:00:40.251Z,94.63
2024-02-19T01:03:54.293Z,93.32
2024-02-19T01:06:59.945Z,93.32
2024-02-19T01:10:07.660Z,93.03
2024-02-19T01:13:12.829Z,93.18
2024-02-19T01:16:22.921Z,93.64
2024-02-19T01:19:31.957Z,93.61
2024-02-19T01:22:42.009Z,93.76
2024-02-19T01:25:49.757Z,93.74
2024-02-19T01:28:56.768Z,93.93
2024-02-19T01:32:01.961Z,92.97
2024-02-19T01:35:10.291Z,92.85
2024-02-19T01:38:35.677Z,93.70
2024-02-19T01:41:49.655Z,94.52
2024-02-19T01:44:56.929Z,93.88
2024-02-19T01:55:35.025Z,92.83
2024-02-19T01:59:43.734Z,91.80
2024-02-19T02:02:52.896Z,92.27
2024-02-19T02:06:14.228Z,91.81
2024-02-19T02:09:22.662Z,92.67
2024-02-19T02:12:35.578Z,92.97
2024-02-19T02:15:41.792Z,92.77
2024-02-19T02:18:54.177Z,93.33
2024-02-19T02:26:03.664Z,93.73
2024-02-19T02:29:16.195Z,94.43
2024-02-19T02:32:34.673Z,94.19
2024-02-19T02:36:03.785Z,94.82
2024-02-19T02:39:13.238Z,95.56
2024-02-19T02:42:21.951Z,95.64
2024-02-19T02:46:13.679Z,95.35
2024-02-19T02:49:57.128Z,95.44
2024-02-19T02:53:29.792Z,95.31
2024-02-19T02:56:48.756Z,96.29
2024-02-19T02:59:58.662Z,96.26
2024-02-19T03:03:05.206Z,96.59
2024-02-19T03:06:10.114Z,96.05
2024-02-19T03:09:18.438Z,97.06
2024-02-19T03:12:24.500Z,97.37
2024-02-19T03:15:28.810Z,97.08
2024-02-19T03:18:38.912Z,96.71
2024-02-19T03:21:43.657Z,95.90
2024-02-19T03:24:56.149Z,97.02
2024-02-19T03:28:02.902Z,96.92
2024-02-19T03:31:10.353Z,96.85
2024-02-19T03:34:20.793Z,96.72
2024-02-19T03:37:31.713Z,96.78
2024-02-19T03:40:38.083Z,96.13
2024-02-19T03:43:51.843Z,96.74
2024-02-19T03:47:04.185Z,95.89
2024-02-19T03:50:11.909Z,95.65
2024-02-19T03:53:18.958Z,95.54
2024-02-19T03:56:24.276Z,96.00
2024-02-19T03:59:38.778Z,96.57
2024-02-19T04:02:56.323Z,97.01
2024-02-19T04:06:08.588Z,97.08
2024-02-19T04:12:41.738Z,98.31
2024-02-19T04:15:45.470Z,98.53
2024-02-19T04:18:48.398Z,99.21
2024-02-19T04:21:52.782Z,99.77
2024-02-19T04:24:55.890Z,99.81
2024-02-19T04:27:58.866Z,99.19
2024-02-19T04:31:01.805Z,97.02
2024-02-19T04:34:04.736Z,97.65
2024-02-19T04:37:10.144Z,97.16
2024-02-19T04:40:14.360Z,97.16
2024-02-19T04:43:17.350Z,97.06
2024-02-19T04:46:21.002Z,96.96
2024-02-19T04:49:24.101Z,96.56
2024-02-19T04:52:28.481Z,96.86
2024-02-19T04:55:31.376Z,95.27
2024-02-19T04:58:34.140Z,94.21
2024-02-19T05:01:37.256Z,94.43
2024-02-19T05:04:40.791Z,94.90
2024-02-19T05:07:45.260Z,93.15
2024-02-19T05:10:48.256Z,93.61
2024-02-19T05:13:51.185Z,92.52
2024-02-19T05:16:54.124Z,91.81
2024-02-19T05:19:57.040Z,92.04
2024-02-19T05:23:01.321Z,92.73
2024-02-19T05:26:07.502Z,92.68
2024-02-19T05:29:12.232Z,92.55
2024-02-19T05:32:18.024Z,92.04
2024-02-19T05:35:22.845Z,91.95
2024-02-19T05:38:27.021Z,91.81
2024-02-19T05:41:30.156Z,90.81
2024-02-19T05:44:32.988Z,90.60
2024-02-19T05:47:36.206Z,91.06
2024-02-19T05:50:39.181Z,91.27
2024-02-19T05:53:43.538Z,90.49
2024-02-19T05:56:46.586Z,90.58
2024-02-19T05:59:49.324Z,90.95
2024-02-19T06:02:52.285Z,91.08
2024-02-19T06:05:55.322Z,90.99
2024-02-19T06:08:59.585Z,90.11
2024-02-19T06:12:03.882Z,90.15
2024-02-19T06:15:07.589Z,90.40
2024-02-19T06:18:10.647Z,91.20
2024-02-19T06:21:13.572Z,90.80
2024-02-19T06:24:17.683Z,89.57
2024-02-19T06:27:21.061Z,89.82
2024-02-19T06:30:23.932Z,90.50
2024-02-19T06:33:26.749Z,90.57
2024-02-19T06:36:29.598Z,90.52
2024-02-19T06:39:34.342Z,89.88
2024-02-19T06:42:37.111Z,90.25
2024-02-19T06:45:40.111Z,90.91
2024-02-19T06:48:43.135Z,90.21
2024-02-19T06:51:46.081Z,90.01
2024-02-19T06:54:50.538Z,90.60
2024-02-19T06:57:53.444Z,89.76
2024-02-19T07:00:56.459Z,89.85
2024-02-19T07:03:59.335Z,89.66
2024-02-19T07:07:02.200Z,90.99
2024-02-19T07:10:07.536Z,91.51
2024-02-19T07:13:10.680Z,90.79
2024-02-19T07:16:13.733Z,88.78
2024-02-19T07:19:17.171Z,89.05
2024-02-19T07:22:20.191Z,88.63
2024-02-19T07:25:24.659Z,89.27
2024-02-19T07:28:27.721Z,88.90
2024-02-19T07:31:30.606Z,87.56
2024-02-19T07:34:33.762Z,87.15
2024-02-19T07:37:36.652Z,86.75
2024-02-19T07:40:41.011Z,86.13
2024-02-19T07:43:44.226Z,86.39
2024-02-19T07:46:46.931Z,85.12
2024-02-19T07:49:49.713Z,84.74
2024-02-19T07:52:52.740Z,84.30
2024-02-19T07:56:05.958Z,83.11
2024-02-19T07:59:08.979Z,83.54
2024-02-19T08:02:12.518Z,82.64
2024-02-19T08:05:15.687Z,81.71
2024-02-19T08:08:19.212Z,81.92
2024-02-19T08:11:24.500Z,81.63
2024-02-19T08:14:27.700Z,81.37
2024-02-19T08:17:30.516Z,80.63
2024-02-19T08:20:33.437Z,80.20
2024-02-19T08:23:36.434Z,79.96
2024-02-19T08:26:40.874Z,79.42
2024-02-19T08:29:44.148Z,79.13
2024-02-19T08:32:47.024Z,80.03
2024-02-19T08:35:50.965Z,78.78
2024-02-19T08:38:54.398Z,79.26
2024-02-19T08:41:59.272Z,78.59
2024-02-19T08:45:04.530Z,77.17
2024-02-19T08:48:08.372Z,78.21
2024-02-19T08:51:11.499Z,78.25
2024-02-19T08:54:14.306Z,77.59
2024-02-19T08:57:18.833Z,76.81
2024-02-19T09:00:21.984Z,76.59
2024-02-19T09:03:24.716Z,76.76
2024-02-19T09:06:27.966Z,77.43
2024-02-19T09:09:30.837Z,76.82
2024-02-19T09:12:35.131Z,77.26
2024-02-19T09:15:37.979Z,77.82
2024-02-19T09:18:40.998Z,77.97
2024-02-19T09:21:44.687Z,77.49
2024-02-19T09:24:49.233Z,77.38
2024-02-19T09:27:54.110Z,76.70
2024-02-19T09:30:57.096Z,76.25
2024-02-19T09:34:01.005Z,77.03
2024-02-19T09:37:04.126Z,75.32
2024-02-19T09:40:09.891Z,74.72
2024-02-19T09:43:14.107Z,75.40
2024-02-19T09:46:19.547Z,75.66
2024-02-19T09:49:28.072Z,74.87
2024-02-19T09:52:31.745Z,74.91
2024-02-19T09:55:34.584Z,74.29
2024-02-19T09:58:40.288Z,74.98
2024-02-19T10:01:43.389Z,74.28
2024-02-19T10:04:46.538Z,74.63
2024-02-19T10:07:49.436Z,75.11
2024-02-19T10:10:57.675Z,74.69
2024-02-19T10:14:01.800Z,74.12
2024-02-19T10:17:06.335Z,74.53
2024-02-19T10:20:10.753Z,73.55
2024-02-19T10:23:13.662Z,73.30
2024-02-19T10:26:16.379Z,73.10
2024-02-19T10:29:22.656Z,73.83
2024-02-19T10:32:25.664Z,74.36
2024-02-19T10:35:30.036Z,73.73
2024-02-19T10:38:32.863Z,73.72
2024-02-19T10:41:37.381Z,74.04
2024-02-19T10:44:42.840Z,74.54
2024-02-19T10:47:45.982Z,74.32
2024-02-19T10:50:49.760Z,74.56
2024-02-19T10:54:00.066Z,74.14
2024-02-19T10:57:09.890Z,74.03
2024-02-19T11:00:15.483Z,72.43
2024-02-19T11:03:18.367Z,72.65
2024-02-19T11:06:25.392Z,73.93
2024-02-19T11:09:33.830Z,73.94
2024-02-19T11:12:38.299Z,73.73
2024-02-19T11:15:43.926Z,72.36
2024-02-19T11:18:47.661Z,72.58
2024-02-19T11:21:50.786Z,71.41
2024-02-19T11:24:53.829Z,73.36
2024-02-19T11:27:56.694Z,73.62
2024-02-19T11:31:04.710Z,74.18
2024-02-19T11:34:07.563Z,73.52
2024-02-19T11:37:12.039Z,74.10
2024-02-19T11:40:15.119Z,74.32
2024-02-19T11:43:18.346Z,72.43
2024-02-19T11:46:23.727Z,72.75
2024-02-19T11:49:27.627Z,71.68
2024-02-19T11:52:30.788Z,71.75
2024-02-19T11:55:34.968Z,69.68
2024-02-19T11:58:38.941Z,70.52
2024-02-19T12:01:44.863Z,69.60
2024-02-19T12:04:52.893Z,69.59
2024-02-19T12:07:56.159Z,68.61
2024-02-19T12:10:59.634Z,68.33
2024-02-19T12:14:04.979Z,69.63
2024-02-19T12:17:09.521Z,67.24
2024-02-19T12:20:13.481Z,67.24
2024-02-19T12:23:16.409Z,67.61
2024-02-19T12:26:19.174Z,68.15
2024-02-19T12:29:22.034Z,67.82
2024-02-19T12:32:26.183Z,67.65
2024-02-19T12:35:29.199Z,68.05
2024-02-19T12:38:32.079Z,66.66
2024-02-19T12:41:35.285Z,66.71
2024-02-19T12:44:38.645Z,64.29
2024-02-19T12:47:43.115Z,62.92
2024-02-19T12:50:46.199Z,62.61
2024-02-19T12:53:49.114Z,61.58
2024-02-19T12:56:52.018Z,62.00
2024-02-19T12:59:55.572Z,61.77
2024-02-19T13:03:00.194Z,62.12
2024-02-19T13:06:03.140Z,61.86
2024-02-19T13:09:07.207Z,61.68
2024-02-19T13:12:10.968Z,60.29
2024-02-19T13:15:13.866Z,61.56
2024-02-19T13:18:18.231Z,61.54
2024-02-19T13:21:21.451Z,62.93
2024-02-19T13:24:24.273Z,61.73
2024-02-19T13:27:27.122Z,61.74
2024-02-19T13:30:29.853Z,60.93
2024-02-19T13:33:34.188Z,62.30
2024-02-19T13:36:37.107Z,62.22
2024-02-19T13:39:40.453Z,61.75
2024-02-19T13:42:44.775Z,59.95
2024-02-19T13:46:02.298Z,61.24
2024-02-19T13:49:08.161Z,61.01
2024-02-19T13:52:13.518Z,62.68
2024-02-19T13:55:19.219Z,63.41
2024-02-19T13:58:23.222Z,62.01
2024-02-19T14:01:30.793Z,63.55
2024-02-19T14:04:36.669Z,62.66
2024-02-19T14:07:39.735Z,63.51
2024-02-19T14:10:42.948Z,64.63
2024-02-19T14:13:51.860Z,63.29
2024-02-19T14:17:01.092Z,63.76
2024-02-19T14:20:06.486Z,64.16
2024-02-19T14:23:09.486Z,63.91
2024-02-19T14:26:12.354Z,63.39
2024-02-19T14:29:16.216Z,63.15
2024-02-19T14:32:21.532Z,61.04
2024-02-19T14:35:26.495Z,61.53
2024-02-19T14:38:29.924Z,62.82
2024-02-19T14:41:32.976Z,62.91
2024-02-19T14:44:37.366Z,63.04
2024-02-19T14:47:43.230Z,63.38
2024-02-19T14:50:48.065Z,62.98
2024-02-19T14:53:51.831Z,63.51
2024-02-19T14:56:55.781Z,64.13
2024-02-19T14:59:58.486Z,63.51
2024-02-19T15:03:02.113Z,62.97
2024-02-19T15:06:07.150Z,62.54
2024-02-19T15:09:10.957Z,62.20
2024-02-19T15:12:13.727Z,64.01
2024-02-19T15:15:16.453Z,63.17
2024-02-19T15:18:20.028Z,63.39
2024-02-19T15:21:25.142Z,63.59
2024-02-19T15:24:27.895Z,63.77
2024-02-19T15:27:30.751Z,63.20
2024-02-19T15:30:33.451Z,63.33
2024-02-19T15:33:36.164Z,63.59
2024-02-19T15:36:40.299Z,62.53
2024-02-19T15:39:43.413Z,63.52
2024-02-19T15:42:46.191Z,63.30
2024-02-19T15:45:49.019Z,62.15
2024-02-19T15:48:51.940Z,62.56
2024-02-19T15:51:56.116Z,62.59
2024-02-19T15:54:58.958Z,63.08
2024-02-19T15:58:01.902Z,63.60
2024-02-19T16:01:07.686Z,63.29
2024-02-19T16:04:10.663Z,62.96
2024-02-19T16:07:14.862Z,62.93
2024-02-19T16:10:17.770Z,63.61
2024-02-19T16:13:20.658Z,64.38
2024-02-19T16:16:23.625Z,63.73
2024-02-19T16:19:26.610Z,64.27
2024-02-19T16:22:30.969Z,63.78
2024-02-19T16:25:33.771Z,64.16
2024-02-19T16:28:36.984Z,65.49
2024-02-19T16:31:40.010Z,65.71
2024-02-19T16:34:43.583Z,67.03
2024-02-19T16:37:49.206Z,66.82
2024-02-19T16:40:53.953Z,65.83
2024-02-19T16:43:56.834Z,66.79
2024-02-19T16:47:00.040Z,68.17
2024-02-19T16:50:03.084Z,69.31
2024-02-19T16:53:07.383Z,69.15
2024-02-19T16:56:11.756Z,71.00
2024-02-19T16:59:14.756Z,72.04
2024-02-19T17:02:17.810Z,72.60
2024-02-19T17:05:21.292Z,74.20
2024-02-19T17:08:26.972Z,75.84
2024-02-19T17:11:30.228Z,77.02
2024-02-19T17:14:33.041Z,77.45
2024-02-19T17:17:36.026Z,78.19
2024-02-19T17:20:39.821Z,78.26
2024-02-19T17:23:45.323Z,78.10
2024-02-19T17:26:48.109Z,79.17
2024-02-19T17:29:50.874Z,79.12
2024-02-19T17:32:53.824Z,79.46
2024-02-19T17:35:57.402Z,80.10
2024-02-19T17:39:01.452Z,79.92
2024-02-19T17:42:04.958Z,80.63
2024-02-19T17:45:08.414Z,80.37
2024-02-19T17:48:14.430Z,80.37
2024-02-19T17:51:20.264Z,80.58
2024-02-19T17:54:24.638Z,79.92
2024-02-19T17:57:27.845Z,80.54
2024-02-19T18:00:30.624Z,80.19
2024-02-19T18:03:33.770Z,80.48
2024-02-19T18:06:37.133Z,80.47
2024-02-19T18:09:41.553Z,79.96
2024-02-19T18:12:46.046Z,80.44
2024-02-19T18:15:48.814Z,80.33
2024-02-19T18:18:51.838Z,80.35
2024-02-19T18:21:55.792Z,79.68
2024-02-19T18:25:00.272Z,79.58
2024-02-19T18:28:03.275Z,79.35
2024-02-19T18:31:10.989Z,79.89
2024-02-19T18:34:13.884Z,79.38
2024-02-19T18:37:16.680Z,79.19
2024-02-19T18:40:20.912Z,79.25
2024-02-19T18:43:26.761Z,79.46
2024-02-19T18:46:29.877Z,78.40
2024-02-19T18:49:35.087Z,79.38
2024-02-19T18:52:38.161Z,79.00
2024-02-19T18:55:42.380Z,78.92
2024-02-19T18:58:45.162Z,79.02
2024-02-19T19:01:48.315Z,79.03
2024-02-19T19:04:51.212Z,78.72
2024-02-19T19:07:54.276Z,79.64
2024-02-19T19:10:58.583Z,79.18
2024-02-19T19:14:01.478Z,78.28
2024-02-19T19:17:04.457Z,78.81
2024-02-19T19:20:10.455Z,78.98
2024-02-19T19:23:13.469Z,79.11
2024-02-19T19:26:17.669Z,79.42
2024-02-19T19:29:21.887Z,79.17
2024-02-19T19:32:26.988Z,79.96
2024-02-19T19:35:29.838Z,80.25
2024-02-19T19:38:32.589Z,79.99
2024-02-19T19:41:37.044Z,79.97
2024-02-19T19:44:39.909Z,79.96
2024-02-19T19:47:42.989Z,80.94
2024-02-19T19:50:45.771Z,80.66
2024-02-19T19:53:48.572Z,81.32
2024-02-19T19:56:52.689Z,81.33
2024-02-19T19:59:55.453Z,80.98
2024-02-19T20:02:58.635Z,81.28
2024-02-19T20:06:01.555Z,80.91
2024-02-19T20:09:05.178Z,81.74
2024-02-19T20:12:09.791Z,81.74
2024-02-19T20:15:13.106Z,80.01
2024-02-19T20:18:16.262Z,80.78
2024-02-19T20:21:19.237Z,81.23
2024-02-19T20:24:21.957Z,81.15
2024-02-19T20:27:26.078Z,81.78
2024-02-19T20:30:28.846Z,82.93
2024-02-19T20:33:31.744Z,83.81
2024-02-19T20:36:36.795Z,84.86
2024-02-19T20:39:41.218Z,85.76
2024-02-19T20:42:46.504Z,85.51
2024-02-19T20:45:49.602Z,86.22
2024-02-19T20:48:52.409Z,85.69
2024-02-19T20:51:55.236Z,86.32
2024-02-19T20:54:58.026Z,87.69
2024-02-19T20:58:03.392Z,87.78
2024-02-19T21:01:06.542Z,88.60
2024-02-19T21:04:09.502Z,88.50
2024-02-19T21:07:12.353Z,88.60
2024-02-19T21:10:15.384Z,89.59
2024-02-19T21:13:19.786Z,90.13
2024-02-19T21:16:23.442Z,90.25
2024-02-19T21:19:26.299Z,90.69
2024-02-19T21:22:29.545Z,91.31
2024-02-19T21:25:34.952Z,89.94
2024-02-19T21:28:39.553Z,90.88
2024-02-19T21:31:42.321Z,90.72
2024-02-19T21:34:45.084Z,91.34
2024-02-19T21:37:49.797Z,91.54
2024-02-19T21:40:52.694Z,91.69
2024-02-19T21:43:56.926Z,90.92
2024-02-19T21:46:59.843Z,91.21
2024-02-19T21:50:07.445Z,90.95
2024-02-19T21:53:10.377Z,91.50
2024-02-19T21:56:13.073Z,91.82
2024-02-19T21:59:18.372Z,91.75
2024-02-19T22:02:21.234Z,92.20
2024-02-19T22:05:24.082Z,92.16
2024-02-19T22:08:27.839Z,91.79
2024-02-19T22:11:30.993Z,92.01
2024-02-19T22:14:35.326Z,91.05
2024-02-19T22:17:38.280Z,91.10
2024-02-19T22:20:41.474Z,90.68
2024-02-19T22:23:44.365Z,91.47
2024-02-19T22:26:48.307Z,90.27
2024-02-19T22:29:52.505Z,90.55
2024-02-19T22:32:55.996Z,90.09
2024-02-19T22:35:59.045Z,89.27
2024-02-19T22:39:01.830Z,89.66
2024-02-19T22:42:05.024Z,90.79
2024-02-19T22:45:09.966Z,90.22
2024-02-19T22:48:13.071Z,91.10
2024-02-19T22:51:15.943Z,90.70
2024-02-19T22:54:18.725Z,90.39
2024-02-19T22:57:22.432Z,91.36
2024-02-19T23:00:29.521Z,91.19
2024-02-19T23:03:33.069Z,91.32
2024-02-19T23:06:37.020Z,91.05
2024-02-19T23:09:39.973Z,90.55
2024-02-19T23:12:42.850Z,90.38
2024-02-19T23:15:47.361Z,90.11
2024-02-19T23:18:50.226Z,90.66
2024-02-19T23:21:53.161Z,90.95
2024-02-19T23:24:56.050Z,90.84
2024-02-19T23:27:59.180Z,90.64
2024-02-19T23:31:03.541Z,90.66
2024-02-19T23:34:06.577Z,90.74
2024-02-19T23:37:09.689Z,91.21
2024-02-19T23:40:18.394Z,91.02
2024-02-19T23:43:22.049Z,90.60
2024-02-19T23:46:27.129Z,90.28
2024-02-19T23:49:30.320Z,89.20
2024-02-19T23:52:33.655Z,90.03
2024-02-19T23:55:36.690Z,90.14
2024-02-19T23:58:39.648Z,89.63
